createdAt,value
2023-01-05T00:04:49.166Z,8.10
2023-01-05T00:09:51.826Z,8.20
2023-01-05T00:15:12.530Z,8.30
2023-01-05T00:20:38.864Z,8.50
2023-01-05T00:25:41.932Z,8.50
2023-01-05T00:30:46.929Z,8.50
2023-01-05T00:35:49.524Z,8.60
2023-01-05T00:40:51.978Z,8.60
2023-01-05T00:45:54.613Z,8.50
2023-01-05T00:50:57.267Z,8.40
2023-01-05T00:56:00.273Z,8.50
2023-01-05T01:01:12.188Z,8.50
2023-01-05T01:06:16.020Z,8.50
2023-01-05T01:11:20.031Z,8.60
2023-01-05T01:16:23.706Z,8.70
2023-01-05T01:21:26.786Z,8.60
2023-01-05T01:26:29.475Z,8.50
2023-01-05T01:31:32.233Z,8.50
2023-01-05T01:36:34.766Z,8.50
2023-01-05T01:41:38.456Z,8.50
2023-01-05T01:46:42.414Z,8.40
2023-01-05T01:51:48.672Z,8.40
2023-01-05T01:56:55.781Z,8.40
2023-01-05T02:02:00.703Z,8.30
2023-01-05T02:07:04.820Z,8.40
2023-01-05T02:12:16.775Z,8.50
2023-01-05T02:17:51.615Z,8.50
2023-01-05T02:23:22.802Z,8.50
2023-01-05T02:28:52.887Z,8.50
2023-01-05T02:34:03.046Z,8.50
2023-01-05T02:39:13.089Z,8.60
2023-01-05T02:44:18.402Z,8.60
2023-01-05T02:49:25.190Z,8.70
2023-01-05T02:54:37.077Z,8.70
2023-01-05T02:59:47.736Z,8.60
2023-01-05T03:05:11.568Z,8.60
2023-01-05T03:10:34.271Z,8.60
2023-01-05T03:15:39.876Z,8.60
2023-01-05T03:20:46.735Z,8.60
2023-01-05T03:26:10.011Z,8.50
2023-01-05T03:31:54.065Z,8.50
2023-01-05T03:37:03.083Z,8.50
2023-01-05T03:42:07.280Z,8.20
2023-01-05T03:47:10.286Z,8.10
2023-01-05T03:52:13.276Z,7.90
2023-01-05T03:57:17.975Z,7.80
2023-01-05T04:02:20.926Z,7.70
2023-01-05T04:07:23.906Z,7.50
2023-01-05T04:12:27.322Z,7.50
2023-01-05T04:17:30.192Z,7.60
2023-01-05T04:22:33.635Z,7.70
2023-01-05T04:27:36.654Z,8.00
2023-01-05T04:32:41.249Z,8.10
2023-01-05T04:37:47.771Z,8.20
2023-01-05T04:42:51.667Z,8.20
2023-01-05T04:47:54.696Z,8.30
2023-01-05T04:52:58.446Z,8.30
2023-01-05T04:58:06.913Z,8.40
2023-01-05T05:03:15.261Z,8.40
2023-01-05T05:08:18.034Z,8.40
2023-01-05T05:13:20.877Z,8.50
2023-01-05T05:18:26.025Z,8.60
2023-01-05T05:23:29.281Z,8.60
2023-01-05T05:28:33.342Z,8.50
2023-01-05T05:33:38.086Z,8.60
2023-01-05T05:38:40.638Z,8.60
2023-01-05T05:43:43.327Z,8.60
2023-01-05T05:48:45.805Z,8.60
2023-01-05T05:53:48.494Z,8.60
2023-01-05T05:58:54.707Z,8.60
2023-01-05T06:04:01.108Z,8.60
2023-01-05T06:09:04.384Z,8.60
2023-01-05T06:14:07.773Z,8.60
2023-01-05T06:19:10.525Z,8.60
2023-01-05T06:24:13.176Z,8.60
2023-01-05T06:29:15.685Z,8.70
2023-01-05T06:34:18.181Z,8.70
2023-01-05T06:39:20.806Z,8.70
2023-01-05T06:44:23.334Z,8.70
2023-01-05T06:49:26.024Z,8.60
2023-01-05T06:54:28.506Z,8.50
2023-01-05T06:59:31.167Z,8.50
2023-01-05T07:04:33.818Z,8.50
2023-01-05T07:09:36.589Z,8.60
2023-01-05T07:14:39.215Z,8.60
2023-01-05T07:19:41.954Z,8.60
2023-01-05T07:24:46.194Z,8.70
2023-01-05T07:29:48.851Z,8.80
2023-01-05T07:34:55.890Z,8.80
2023-01-05T07:40:09.470Z,8.90
2023-01-05T07:45:11.966Z,9.00
2023-01-05T07:50:14.648Z,9.00
2023-01-05T07:55:17.337Z,9.10
2023-01-05T08:00:20.145Z,9.10
2023-01-05T08:05:22.691Z,9.10
2023-01-05T08:10:30.961Z,9.10
2023-01-05T08:15:33.545Z,9.10
2023-01-05T08:20:36.114Z,9.20
2023-01-05T08:25:38.707Z,9.20
2023-01-05T08:30:41.503Z,9.30
2023-01-05T08:35:45.229Z,9.30
2023-01-05T08:40:47.697Z,9.20
2023-01-05T08:45:50.368Z,9.20
2023-01-05T08:50:53.002Z,9.20
2023-01-05T08:55:55.741Z,9.30
2023-01-05T09:00:58.260Z,9.50
2023-01-05T09:06:03.393Z,9.70
2023-01-05T09:11:13.344Z,10.00
2023-01-05T09:16:42.416Z,9.90
2023-01-05T09:21:41.707Z,9.80
2023-01-05T09:26:44.378Z,9.50
2023-01-05T09:31:47.117Z,9.20
2023-01-05T09:36:49.981Z,9.30
2023-01-05T09:41:59.067Z,9.50
2023-01-05T09:47:20.377Z,9.70
2023-01-05T09:52:23.128Z,9.70
2023-01-05T09:57:28.679Z,9.80
2023-01-05T10:02:41.435Z,9.60
2023-01-05T10:08:01.962Z,9.70
2023-01-05T10:13:07.311Z,9.70
2023-01-05T10:18:15.843Z,9.50
2023-01-05T10:24:09.369Z,9.40
2023-01-05T10:29:14.152Z,9.30
2023-01-05T10:34:24.060Z,9.40
2023-01-05T10:39:56.208Z,9.40
2023-01-05T10:45:04.916Z,9.40
2023-01-05T10:50:22.574Z,9.60
2023-01-05T10:55:27.648Z,10.20
2023-01-05T11:00:42.283Z,10.30
2023-01-05T11:05:47.338Z,10.40
2023-01-05T11:11:07.409Z,10.40
2023-01-05T11:16:26.806Z,10.00
2023-01-05T11:21:46.171Z,9.90
2023-01-05T11:26:50.996Z,9.80
2023-01-05T11:32:05.252Z,9.50
2023-01-05T11:37:27.111Z,9.50
2023-01-05T11:42:34.147Z,9.40
2023-01-05T11:47:45.072Z,10.10
2023-01-05T11:52:50.582Z,8.90
2023-01-05T11:58:00.025Z,8.90
2023-01-05T12:03:18.061Z,8.80
2023-01-05T12:08:32.566Z,9.00
2023-01-05T12:13:57.847Z,9.20
2023-01-05T12:19:25.097Z,9.10
2023-01-05T12:24:39.276Z,8.80
2023-01-05T12:31:34.410Z,9.10
2023-01-05T12:35:34.548Z,9.20
2023-01-05T12:40:48.841Z,9.20
2023-01-05T12:46:47.527Z,9.10
2023-01-05T12:52:06.513Z,8.90
2023-01-05T12:57:22.751Z,8.80
2023-01-05T13:02:39.383Z,8.70
2023-01-05T13:08:25.265Z,8.50
2023-01-05T13:13:41.559Z,8.50
2023-01-05T13:19:14.799Z,8.50
2023-01-05T13:24:27.904Z,8.50
2023-01-05T13:29:54.327Z,8.50
2023-01-05T13:35:35.781Z,8.40
2023-01-05T13:40:47.719Z,8.40
2023-01-05T13:46:05.285Z,8.40
2023-01-05T13:51:50.191Z,8.20
2023-01-05T13:56:52.878Z,8.10
2023-01-05T14:01:59.146Z,8.00
2023-01-05T14:07:06.354Z,7.90
2023-01-05T14:12:09.118Z,7.80
2023-01-05T14:17:11.754Z,7.80
2023-01-05T14:22:20.199Z,7.80
2023-01-05T14:27:24.412Z,7.80
2023-01-05T14:32:44.245Z,7.80
2023-01-05T14:37:55.575Z,7.80
2023-01-05T14:43:00.771Z,7.80
2023-01-05T14:48:24.398Z,7.80
2023-01-05T14:53:38.169Z,7.70
2023-01-05T14:58:43.521Z,7.50
2023-01-05T15:03:46.113Z,7.50
2023-01-05T15:09:07.990Z,7.50
2023-01-05T15:14:37.742Z,7.50
2023-01-05T15:19:40.279Z,7.40
2023-01-05T15:25:16.051Z,7.40
2023-01-05T15:30:37.442Z,7.40
2023-01-05T15:35:50.036Z,7.30
2023-01-05T15:41:07.721Z,7.30
2023-01-05T15:46:11.962Z,7.40
2023-01-05T15:51:29.599Z,7.40
2023-01-05T15:56:36.218Z,7.40
2023-01-05T16:01:38.864Z,7.20
2023-01-05T16:06:45.483Z,6.70
2023-01-05T16:11:50.451Z,6.20
2023-01-05T16:17:15.240Z,5.90
2023-01-05T16:22:26.648Z,5.60
2023-01-05T16:27:29.720Z,5.30
2023-01-05T16:32:32.249Z,5.20
2023-01-05T16:37:34.760Z,5.30
2023-01-05T16:42:47.575Z,5.30
2023-01-05T16:47:50.444Z,5.20
2023-01-05T16:52:54.185Z,5.10
2023-01-05T16:58:00.577Z,5.00
2023-01-05T17:03:22.169Z,3.80
2023-01-05T17:08:31.776Z,5.00
2023-01-05T17:13:52.371Z,4.90
2023-01-05T17:18:55.072Z,4.80
2023-01-05T17:24:00.365Z,4.70
2023-01-05T17:29:04.702Z,4.60
2023-01-05T17:34:07.390Z,4.60
2023-01-05T17:39:16.800Z,4.60
2023-01-05T17:44:19.709Z,4.60
2023-01-05T17:49:23.582Z,4.60
2023-01-05T17:54:26.108Z,4.70
2023-01-05T17:59:28.875Z,4.70
2023-01-05T18:09:38.843Z,4.70
2023-01-05T18:14:41.651Z,4.70
2023-01-05T18:19:44.385Z,4.70
2023-01-05T18:24:47.667Z,4.70
2023-01-05T18:29:50.218Z,4.80
2023-01-05T18:34:52.904Z,4.70
2023-01-05T18:39:55.599Z,4.70
2023-01-05T18:44:58.849Z,4.70
2023-01-05T18:50:01.682Z,4.70
2023-01-05T18:55:04.873Z,4.60
2023-01-05T19:00:08.215Z,4.60
2023-01-05T19:05:11.047Z,4.60
2023-01-05T19:10:13.640Z,4.60
2023-01-05T19:15:16.463Z,4.60
2023-01-05T19:20:20.495Z,4.50
2023-01-05T19:25:23.340Z,4.50
2023-01-05T19:30:26.699Z,4.50
2023-01-05T19:35:31.114Z,4.40
2023-01-05T19:40:33.926Z,4.40
2023-01-05T19:45:36.521Z,4.40
2023-01-05T19:50:39.243Z,4.40
2023-01-05T19:55:41.746Z,4.50
2023-01-05T20:00:44.368Z,4.60
2023-01-05T20:05:46.970Z,4.50
2023-01-05T20:10:49.676Z,4.50
2023-01-05T20:15:52.522Z,4.50
2023-01-05T20:20:55.258Z,4.40
2023-01-05T20:26:13.245Z,4.40
2023-01-05T20:31:26.397Z,4.30
2023-01-05T20:36:29.742Z,4.20
2023-01-05T20:41:36.800Z,4.20
2023-01-05T20:46:45.357Z,4.10
2023-01-05T20:51:47.992Z,4.00
2023-01-05T20:56:51.853Z,4.10
2023-01-05T21:01:55.272Z,4.80
2023-01-05T21:07:01.028Z,4.10
2023-01-05T21:12:03.803Z,4.10
2023-01-05T21:17:06.861Z,4.20
2023-01-05T21:22:09.586Z,4.20
2023-01-05T21:27:12.306Z,4.20
2023-01-05T21:32:15.081Z,4.20
2023-01-05T21:37:17.668Z,4.20
2023-01-05T21:42:39.054Z,4.30
2023-01-05T21:47:41.632Z,4.30
2023-01-05T21:53:02.543Z,4.20
2023-01-05T21:58:05.671Z,4.20
2023-01-05T22:03:08.349Z,4.20
2023-01-05T22:08:10.841Z,4.20
2023-01-05T22:13:13.657Z,4.20
2023-01-05T22:18:16.243Z,4.10
2023-01-05T22:23:19.038Z,4.10
2023-01-05T22:28:21.618Z,4.10
2023-01-05T22:33:24.215Z,4.10
2023-01-05T22:38:28.421Z,4.10
2023-01-05T22:43:31.156Z,4.20
2023-01-05T22:48:39.387Z,6.50
2023-01-05T22:53:43.004Z,4.10
2023-01-05T22:58:46.065Z,4.10
2023-01-05T23:03:49.440Z,4.00
2023-01-05T23:08:53.280Z,4.00
2023-01-05T23:13:57.863Z,3.90
2023-01-05T23:19:00.631Z,3.90
2023-01-05T23:24:03.453Z,3.90
2023-01-05T23:29:06.132Z,3.90
2023-01-05T23:34:10.059Z,3.90
2023-01-05T23:39:12.664Z,3.80
2023-01-05T23:44:15.152Z,3.80
2023-01-05T23:49:17.598Z,3.80
2023-01-05T23:54:22.812Z,3.80
2023-01-05T23:59:25.404Z,3.80
